<?xml version="1.0" encoding="UTF-8" standalone="no" ?>
<gpx xmlns="http://www.topografix.com/GPX/1/1" xmlns:xsi="http://www.w3.org/2001/XMLSchema-instance" xsi:schemaLocation="http://www.topografix.com/GPX/1/1 http://www.topografix.com/GPX/1/1/gpx.xsd" version="1.1" creator="VisuGPX - https://www.visugpx.com">
  <metadata>
    <name>222011</name>
    <desc><![CDATA[Balade vendéenne 2]]></desc>
  </metadata>
  <trk>
    <name><![CDATA[ACTIVE LOG102539]]></name>
    <trkseg>
      <trkpt lat="46.93004" lon="-2.03854">
        <ele>3.295</ele>
        <time>2011-08-05T08:25:39Z</time>
      </trkpt>
      <trkpt lat="46.93001" lon="-2.03856">
        <ele>3.255</ele>
        <time>2011-08-05T08:25:40Z</time>
      </trkpt>
      <trkpt lat="46.92952" lon="-2.03887">
        <ele>0.613</ele>
        <time>2011-08-05T08:25:53Z</time>
      </trkpt>
      <trkpt lat="46.92935" lon="-2.03901">
        <ele>-0.571</ele>
        <time>2011-08-05T08:25:55Z</time>
      </trkpt>
      <trkpt lat="46.92905" lon="-2.03927">
        <ele>2.767</ele>
        <time>2011-08-05T08:26:01Z</time>
      </trkpt>
      <trkpt lat="46.92796" lon="-2.04014">
        <ele>-0.224</ele>
        <time>2011-08-05T08:26:21Z</time>
      </trkpt>
      <trkpt lat="46.92669" lon="-2.04085">
        <ele>0.825</ele>
        <time>2011-08-05T08:26:42Z</time>
      </trkpt>
      <trkpt lat="46.92543" lon="-2.04053">
        <ele>0.545</ele>
        <time>2011-08-05T08:27:00Z</time>
      </trkpt>
      <trkpt lat="46.92448" lon="-2.04061">
        <ele>-0.541</ele>
        <time>2011-08-05T08:27:14Z</time>
      </trkpt>
      <trkpt lat="46.92359" lon="-2.04102">
        <ele>-0.413</ele>
        <time>2011-08-05T08:27:28Z</time>
      </trkpt>
      <trkpt lat="46.92195" lon="-2.04188">
        <ele>0.733</ele>
        <time>2011-08-05T08:27:54Z</time>
      </trkpt>
      <trkpt lat="46.92088" lon="-2.04239">
        <ele>0.346</ele>
        <time>2011-08-05T08:28:11Z</time>
      </trkpt>
      <trkpt lat="46.91948" lon="-2.04317">
        <ele>1.777</ele>
        <time>2011-08-05T08:28:34Z</time>
      </trkpt>
      <trkpt lat="46.91868" lon="-2.04396">
        <ele>1.825</ele>
        <time>2011-08-05T08:28:50Z</time>
      </trkpt>
      <trkpt lat="46.91862" lon="-2.04406">
        <ele>1.089</ele>
        <time>2011-08-05T08:28:54Z</time>
      </trkpt>
      <trkpt lat="46.91784" lon="-2.04513">
        <ele>1.511</ele>
        <time>2011-08-05T08:29:09Z</time>
      </trkpt>
      <trkpt lat="46.91696" lon="-2.04622">
        <ele>1.458</ele>
        <time>2011-08-05T08:29:27Z</time>
      </trkpt>
      <trkpt lat="46.91619" lon="-2.04655">
        <ele>1.569</ele>
        <time>2011-08-05T08:29:42Z</time>
      </trkpt>
      <trkpt lat="46.91573" lon="-2.04655">
        <ele>2.576</ele>
        <time>2011-08-05T08:29:52Z</time>
      </trkpt>
      <trkpt lat="46.91559" lon="-2.04655">
        <ele>3.007</ele>
        <time>2011-08-05T08:29:55Z</time>
      </trkpt>
      <trkpt lat="46.91548" lon="-2.04642">
        <ele>2.674</ele>
        <time>2011-08-05T08:30:02Z</time>
      </trkpt>
      <trkpt lat="46.91551" lon="-2.04628">
        <ele>2.688</ele>
        <time>2011-08-05T08:30:04Z</time>
      </trkpt>
      <trkpt lat="46.91574" lon="-2.04508">
        <ele>3.872</ele>
        <time>2011-08-05T08:30:19Z</time>
      </trkpt>
      <trkpt lat="46.91578" lon="-2.0444">
        <ele>5.263</ele>
        <time>2011-08-05T08:30:28Z</time>
      </trkpt>
      <trkpt lat="46.91573" lon="-2.04411">
        <ele>5.113</ele>
        <time>2011-08-05T08:30:32Z</time>
      </trkpt>
      <trkpt lat="46.91578" lon="-2.04356">
        <ele>5.545</ele>
        <time>2011-08-05T08:30:41Z</time>
      </trkpt>
      <trkpt lat="46.91581" lon="-2.04326">
        <ele>4.245</ele>
        <time>2011-08-05T08:30:47Z</time>
      </trkpt>
      <trkpt lat="46.91566" lon="-2.04286">
        <ele>5.312</ele>
        <time>2011-08-05T08:31:00Z</time>
      </trkpt>
      <trkpt lat="46.91528" lon="-2.0421">
        <ele>3.056</ele>
        <time>2011-08-05T08:31:09Z</time>
      </trkpt>
      <trkpt lat="46.91518" lon="-2.04191">
        <ele>3.708</ele>
        <time>2011-08-05T08:31:12Z</time>
      </trkpt>
      <trkpt lat="46.91505" lon="-2.04157">
        <ele>4.065</ele>
        <time>2011-08-05T08:31:18Z</time>
      </trkpt>
      <trkpt lat="46.91505" lon="-2.04056">
        <ele>2.847</ele>
        <time>2011-08-05T08:31:28Z</time>
      </trkpt>
      <trkpt lat="46.91491" lon="-2.04031">
        <ele>1.204</ele>
        <time>2011-08-05T08:31:32Z</time>
      </trkpt>
      <trkpt lat="46.91402" lon="-2.03981">
        <ele>3.123</ele>
        <time>2011-08-05T08:31:47Z</time>
      </trkpt>
      <trkpt lat="46.91295" lon="-2.03908">
        <ele>3.353</ele>
        <time>2011-08-05T08:32:05Z</time>
      </trkpt>
      <trkpt lat="46.91238" lon="-2.03808">
        <ele>4.747</ele>
        <time>2011-08-05T08:32:19Z</time>
      </trkpt>
      <trkpt lat="46.91157" lon="-2.03624">
        <ele>7.493</ele>
        <time>2011-08-05T08:32:43Z</time>
      </trkpt>
      <trkpt lat="46.91088" lon="-2.03474">
        <ele>10.037</ele>
        <time>2011-08-05T08:33:03Z</time>
      </trkpt>
      <trkpt lat="46.91023" lon="-2.03339">
        <ele>13.216</ele>
        <time>2011-08-05T08:33:23Z</time>
      </trkpt>
      <trkpt lat="46.90916" lon="-2.03115">
        <ele>15.315</ele>
        <time>2011-08-05T08:33:54Z</time>
      </trkpt>
      <trkpt lat="46.9087" lon="-2.03015">
        <ele>15.788</ele>
        <time>2011-08-05T08:34:08Z</time>
      </trkpt>
      <trkpt lat="46.9087" lon="-2.03015">
        <ele>16.32</ele>
        <time>2011-08-05T08:34:11Z</time>
      </trkpt>
      <trkpt lat="46.90765" lon="-2.02796">
        <ele>16.239</ele>
        <time>2011-08-05T08:34:35Z</time>
      </trkpt>
      <trkpt lat="46.90726" lon="-2.02718">
        <ele>14.802</ele>
        <time>2011-08-05T08:34:44Z</time>
      </trkpt>
      <trkpt lat="46.9066" lon="-2.02586">
        <ele>17.9</ele>
        <time>2011-08-05T08:35:02Z</time>
      </trkpt>
      <trkpt lat="46.90602" lon="-2.02407">
        <ele>17.936</ele>
        <time>2011-08-05T08:35:19Z</time>
      </trkpt>
      <trkpt lat="46.906" lon="-2.02402">
        <ele>16.629</ele>
        <time>2011-08-05T08:35:22Z</time>
      </trkpt>
      <trkpt lat="46.90518" lon="-2.02102">
        <ele>15.944</ele>
        <time>2011-08-05T08:35:50Z</time>
      </trkpt>
      <trkpt lat="46.90494" lon="-2.0197">
        <ele>12.908</ele>
        <time>2011-08-05T08:36:02Z</time>
      </trkpt>
      <trkpt lat="46.90447" lon="-2.01701">
        <ele>9.796</ele>
        <time>2011-08-05T08:36:26Z</time>
      </trkpt>
      <trkpt lat="46.90411" lon="-2.01492">
        <ele>8.091</ele>
        <time>2011-08-05T08:36:46Z</time>
      </trkpt>
      <trkpt lat="46.90403" lon="-2.01449">
        <ele>7.47</ele>
        <time>2011-08-05T08:36:50Z</time>
      </trkpt>
      <trkpt lat="46.90403" lon="-2.01449">
        <ele>8.003</ele>
        <time>2011-08-05T08:36:51Z</time>
      </trkpt>
      <trkpt lat="46.90394" lon="-2.0141">
        <ele>8.215</ele>
        <time>2011-08-05T08:36:55Z</time>
      </trkpt>
      <trkpt lat="46.90361" lon="-2.01233">
        <ele>6.203</ele>
        <time>2011-08-05T08:37:10Z</time>
      </trkpt>
      <trkpt lat="46.90298" lon="-2.00877">
        <ele>4.962</ele>
        <time>2011-08-05T08:37:41Z</time>
      </trkpt>
      <trkpt lat="46.90252" lon="-2.00556">
        <ele>3.883</ele>
        <time>2011-08-05T08:38:09Z</time>
      </trkpt>
      <trkpt lat="46.90265" lon="-2.00396">
        <ele>3.3</ele>
        <time>2011-08-05T08:38:23Z</time>
      </trkpt>
      <trkpt lat="46.90255" lon="-2.00301">
        <ele>3.113</ele>
        <time>2011-08-05T08:38:32Z</time>
      </trkpt>
      <trkpt lat="46.90244" lon="-2.00108">
        <ele>5.175</ele>
        <time>2011-08-05T08:38:51Z</time>
      </trkpt>
      <trkpt lat="46.90244" lon="-2.00097">
        <ele>4.881</ele>
        <time>2011-08-05T08:38:53Z</time>
      </trkpt>
      <trkpt lat="46.90246" lon="-2.00056">
        <ele>4.917</ele>
        <time>2011-08-05T08:38:57Z</time>
      </trkpt>
      <trkpt lat="46.90256" lon="-1.99974">
        <ele>5.542</ele>
        <time>2011-08-05T08:39:05Z</time>
      </trkpt>
      <trkpt lat="46.9026" lon="-1.99942">
        <ele>4.542</ele>
        <time>2011-08-05T08:39:08Z</time>
      </trkpt>
      <trkpt lat="46.90245" lon="-1.99892">
        <ele>4.983</ele>
        <time>2011-08-05T08:39:13Z</time>
      </trkpt>
      <trkpt lat="46.90216" lon="-1.99844">
        <ele>6.207</ele>
        <time>2011-08-05T08:39:20Z</time>
      </trkpt>
      <trkpt lat="46.90181" lon="-1.99733">
        <ele>6.096</ele>
        <time>2011-08-05T08:39:33Z</time>
      </trkpt>
      <trkpt lat="46.90156" lon="-1.99531">
        <ele>6.614</ele>
        <time>2011-08-05T08:39:53Z</time>
      </trkpt>
      <trkpt lat="46.90134" lon="-1.99195">
        <ele>6.958</ele>
        <time>2011-08-05T08:40:25Z</time>
      </trkpt>
      <trkpt lat="46.90119" lon="-1.99022">
        <ele>8.242</ele>
        <time>2011-08-05T08:40:41Z</time>
      </trkpt>
      <trkpt lat="46.90115" lon="-1.98977">
        <ele>6.295</ele>
        <time>2011-08-05T08:40:46Z</time>
      </trkpt>
      <trkpt lat="46.90091" lon="-1.98953">
        <ele>5.95</ele>
        <time>2011-08-05T08:40:48Z</time>
      </trkpt>
      <trkpt lat="46.89927" lon="-1.98764">
        <ele>4.877</ele>
        <time>2011-08-05T08:41:14Z</time>
      </trkpt>
      <trkpt lat="46.89815" lon="-1.98638">
        <ele>4.82</ele>
        <time>2011-08-05T08:41:33Z</time>
      </trkpt>
      <trkpt lat="46.89815" lon="-1.98638">
        <ele>4.57</ele>
        <time>2011-08-05T08:41:34Z</time>
      </trkpt>
      <trkpt lat="46.89697" lon="-1.98495">
        <ele>4.445</ele>
        <time>2011-08-05T08:41:51Z</time>
      </trkpt>
      <trkpt lat="46.89518" lon="-1.9828">
        <ele>4.047</ele>
        <time>2011-08-05T08:42:20Z</time>
      </trkpt>
      <trkpt lat="46.89344" lon="-1.98078">
        <ele>4.747</ele>
        <time>2011-08-05T08:42:49Z</time>
      </trkpt>
      <trkpt lat="46.89204" lon="-1.97913">
        <ele>3.585</ele>
        <time>2011-08-05T08:43:14Z</time>
      </trkpt>
      <trkpt lat="46.89054" lon="-1.97735">
        <ele>4.14</ele>
        <time>2011-08-05T08:43:42Z</time>
      </trkpt>
      <trkpt lat="46.88912" lon="-1.97563">
        <ele>3.518</ele>
        <time>2011-08-05T08:44:08Z</time>
      </trkpt>
      <trkpt lat="46.88772" lon="-1.97374">
        <ele>2.414</ele>
        <time>2011-08-05T08:44:34Z</time>
      </trkpt>
      <trkpt lat="46.88669" lon="-1.97166">
        <ele>1.783</ele>
        <time>2011-08-05T08:44:58Z</time>
      </trkpt>
      <trkpt lat="46.88575" lon="-1.96943">
        <ele>2.929</ele>
        <time>2011-08-05T08:45:23Z</time>
      </trkpt>
      <trkpt lat="46.8857" lon="-1.9693">
        <ele>3.673</ele>
        <time>2011-08-05T08:45:25Z</time>
      </trkpt>
      <trkpt lat="46.88532" lon="-1.96856">
        <ele>5.403</ele>
        <time>2011-08-05T08:45:34Z</time>
      </trkpt>
      <trkpt lat="46.88464" lon="-1.96718">
        <ele>7.468</ele>
        <time>2011-08-05T08:45:52Z</time>
      </trkpt>
      <trkpt lat="46.88438" lon="-1.9666">
        <ele>6.673</ele>
        <time>2011-08-05T08:45:59Z</time>
      </trkpt>
      <trkpt lat="46.88334" lon="-1.96441">
        <ele>8.388</ele>
        <time>2011-08-05T08:46:27Z</time>
      </trkpt>
      <trkpt lat="46.88214" lon="-1.96201">
        <ele>8.899</ele>
        <time>2011-08-05T08:46:58Z</time>
      </trkpt>
      <trkpt lat="46.88102" lon="-1.9599">
        <ele>8.896</ele>
        <time>2011-08-05T08:47:24Z</time>
      </trkpt>
      <trkpt lat="46.87979" lon="-1.95751">
        <ele>10.998</ele>
        <time>2011-08-05T08:47:53Z</time>
      </trkpt>
      <trkpt lat="46.8784" lon="-1.95479">
        <ele>11.245</ele>
        <time>2011-08-05T08:48:25Z</time>
      </trkpt>
      <trkpt lat="46.87728" lon="-1.95263">
        <ele>11.969</ele>
        <time>2011-08-05T08:48:51Z</time>
      </trkpt>
      <trkpt lat="46.87642" lon="-1.95094">
        <ele>12.201</ele>
        <time>2011-08-05T08:49:14Z</time>
      </trkpt>
      <trkpt lat="46.87529" lon="-1.94875">
        <ele>10.333</ele>
        <time>2011-08-05T08:49:42Z</time>
      </trkpt>
      <trkpt lat="46.87441" lon="-1.9469">
        <ele>12.091</ele>
        <time>2011-08-05T08:50:06Z</time>
      </trkpt>
      <trkpt lat="46.87342" lon="-1.94466">
        <ele>11.002</ele>
        <time>2011-08-05T08:50:29Z</time>
      </trkpt>
      <trkpt lat="46.8724" lon="-1.94228">
        <ele>11.097</ele>
        <time>2011-08-05T08:50:54Z</time>
      </trkpt>
      <trkpt lat="46.87171" lon="-1.94066">
        <ele>8.834</ele>
        <time>2011-08-05T08:51:13Z</time>
      </trkpt>
      <trkpt lat="46.87064" lon="-1.93827">
        <ele>7.182</ele>
        <time>2011-08-05T08:51:42Z</time>
      </trkpt>
      <trkpt lat="46.87011" lon="-1.93701">
        <ele>7.726</ele>
        <time>2011-08-05T08:51:53Z</time>
      </trkpt>
      <trkpt lat="46.86894" lon="-1.93421">
        <ele>6.853</ele>
        <time>2011-08-05T08:52:22Z</time>
      </trkpt>
      <trkpt lat="46.86818" lon="-1.93214">
        <ele>6.099</ele>
        <time>2011-08-05T08:52:42Z</time>
      </trkpt>
      <trkpt lat="46.86711" lon="-1.92917">
        <ele>6.873</ele>
        <time>2011-08-05T08:53:13Z</time>
      </trkpt>
      <trkpt lat="46.86651" lon="-1.92752">
        <ele>4.85</ele>
        <time>2011-08-05T08:53:29Z</time>
      </trkpt>
      <trkpt lat="46.8656" lon="-1.92499">
        <ele>0.866</ele>
        <time>2011-08-05T08:53:52Z</time>
      </trkpt>
      <trkpt lat="46.86556" lon="-1.92488">
        <ele>0.781</ele>
        <time>2011-08-05T08:53:53Z</time>
      </trkpt>
      <trkpt lat="46.86526" lon="-1.924">
        <ele>3.788</ele>
        <time>2011-08-05T08:54:02Z</time>
      </trkpt>
      <trkpt lat="46.86451" lon="-1.92188">
        <ele>3.822</ele>
        <time>2011-08-05T08:54:25Z</time>
      </trkpt>
      <trkpt lat="46.86396" lon="-1.9203">
        <ele>5.398</ele>
        <time>2011-08-05T08:54:42Z</time>
      </trkpt>
      <trkpt lat="46.86317" lon="-1.91805">
        <ele>5.969</ele>
        <time>2011-08-05T08:55:09Z</time>
      </trkpt>
      <trkpt lat="46.86231" lon="-1.91545">
        <ele>5.277</ele>
        <time>2011-08-05T08:55:37Z</time>
      </trkpt>
      <trkpt lat="46.8612" lon="-1.91227">
        <ele>2.767</ele>
        <time>2011-08-05T08:56:09Z</time>
      </trkpt>
      <trkpt lat="46.86019" lon="-1.90929">
        <ele>2.233</ele>
        <time>2011-08-05T08:56:38Z</time>
      </trkpt>
      <trkpt lat="46.85954" lon="-1.90737">
        <ele>1.537</ele>
        <time>2011-08-05T08:56:58Z</time>
      </trkpt>
      <trkpt lat="46.85892" lon="-1.9054">
        <ele>1.376</ele>
        <time>2011-08-05T08:57:19Z</time>
      </trkpt>
      <trkpt lat="46.85834" lon="-1.90377">
        <ele>2.325</ele>
        <time>2011-08-05T08:57:36Z</time>
      </trkpt>
      <trkpt lat="46.85792" lon="-1.90259">
        <ele>4.292</ele>
        <time>2011-08-05T08:57:48Z</time>
      </trkpt>
      <trkpt lat="46.8577" lon="-1.902">
        <ele>2.943</ele>
        <time>2011-08-05T08:57:54Z</time>
      </trkpt>
      <trkpt lat="46.85744" lon="-1.90127">
        <ele>1.132</ele>
        <time>2011-08-05T08:58:01Z</time>
      </trkpt>
      <trkpt lat="46.85673" lon="-1.89939">
        <ele>0.529</ele>
        <time>2011-08-05T08:58:20Z</time>
      </trkpt>
      <trkpt lat="46.85646" lon="-1.8977">
        <ele>1.197</ele>
        <time>2011-08-05T08:58:36Z</time>
      </trkpt>
      <trkpt lat="46.85609" lon="-1.89686">
        <ele>0.835</ele>
        <time>2011-08-05T08:58:47Z</time>
      </trkpt>
      <trkpt lat="46.85556" lon="-1.89649">
        <ele>0.434</ele>
        <time>2011-08-05T08:58:55Z</time>
      </trkpt>
      <trkpt lat="46.85538" lon="-1.89671">
        <ele>0.624</ele>
        <time>2011-08-05T08:58:58Z</time>
      </trkpt>
      <trkpt lat="46.85506" lon="-1.89664">
        <ele>1.452</ele>
        <time>2011-08-05T08:59:05Z</time>
      </trkpt>
      <trkpt lat="46.85506" lon="-1.89664">
        <ele>2.062</ele>
        <time>2011-08-05T08:59:08Z</time>
      </trkpt>
      <trkpt lat="46.85458" lon="-1.896">
        <ele>2.163</ele>
        <time>2011-08-05T08:59:20Z</time>
      </trkpt>
      <trkpt lat="46.8545" lon="-1.89591">
        <ele>2.124</ele>
        <time>2011-08-05T08:59:23Z</time>
      </trkpt>
      <trkpt lat="46.85429" lon="-1.89553">
        <ele>1.847</ele>
        <time>2011-08-05T08:59:30Z</time>
      </trkpt>
      <trkpt lat="46.85429" lon="-1.89553">
        <ele>3.167</ele>
        <time>2011-08-05T08:59:33Z</time>
      </trkpt>
      <trkpt lat="46.85408" lon="-1.89517">
        <ele>2.784</ele>
        <time>2011-08-05T08:59:35Z</time>
      </trkpt>
      <trkpt lat="46.85369" lon="-1.89445">
        <ele>2.823</ele>
        <time>2011-08-05T08:59:46Z</time>
      </trkpt>
      <trkpt lat="46.85293" lon="-1.89306">
        <ele>3.455</ele>
        <time>2011-08-05T09:00:06Z</time>
      </trkpt>
      <trkpt lat="46.85278" lon="-1.89278">
        <ele>3.205</ele>
        <time>2011-08-05T09:00:10Z</time>
      </trkpt>
      <trkpt lat="46.85258" lon="-1.89241">
        <ele>2.376</ele>
        <time>2011-08-05T09:00:15Z</time>
      </trkpt>
      <trkpt lat="46.85138" lon="-1.89031">
        <ele>2.346</ele>
        <time>2011-08-05T09:00:44Z</time>
      </trkpt>
      <trkpt lat="46.85089" lon="-1.89012">
        <ele>3.259</ele>
        <time>2011-08-05T09:00:52Z</time>
      </trkpt>
      <trkpt lat="46.85077" lon="-1.89022">
        <ele>2.996</ele>
        <time>2011-08-05T09:00:54Z</time>
      </trkpt>
      <trkpt lat="46.85026" lon="-1.89067">
        <ele>4.273</ele>
        <time>2011-08-05T09:01:03Z</time>
      </trkpt>
      <trkpt lat="46.85021" lon="-1.89071">
        <ele>4.273</ele>
        <time>2011-08-05T09:01:04Z</time>
      </trkpt>
      <trkpt lat="46.84971" lon="-1.89117">
        <ele>5.075</ele>
        <time>2011-08-05T09:01:13Z</time>
      </trkpt>
      <trkpt lat="46.84888" lon="-1.89166">
        <ele>4.918</ele>
        <time>2011-08-05T09:01:27Z</time>
      </trkpt>
      <trkpt lat="46.84862" lon="-1.89175">
        <ele>2.88</ele>
        <time>2011-08-05T09:01:31Z</time>
      </trkpt>
      <trkpt lat="46.8483" lon="-1.89186">
        <ele>5.295</ele>
        <time>2011-08-05T09:01:36Z</time>
      </trkpt>
      <trkpt lat="46.84716" lon="-1.89231">
        <ele>3.542</ele>
        <time>2011-08-05T09:01:54Z</time>
      </trkpt>
      <trkpt lat="46.84639" lon="-1.89261">
        <ele>3.657</ele>
        <time>2011-08-05T09:02:05Z</time>
      </trkpt>
      <trkpt lat="46.84524" lon="-1.89305">
        <ele>1.462</ele>
        <time>2011-08-05T09:02:23Z</time>
      </trkpt>
      <trkpt lat="46.84441" lon="-1.89305">
        <ele>1.217</ele>
        <time>2011-08-05T09:02:35Z</time>
      </trkpt>
      <trkpt lat="46.84407" lon="-1.89293">
        <ele>1.318</ele>
        <time>2011-08-05T09:02:40Z</time>
      </trkpt>
      <trkpt lat="46.84333" lon="-1.89199">
        <ele>0.631</ele>
        <time>2011-08-05T09:02:54Z</time>
      </trkpt>
      <trkpt lat="46.84327" lon="-1.89183">
        <ele>2.154</ele>
        <time>2011-08-05T09:02:56Z</time>
      </trkpt>
      <trkpt lat="46.84312" lon="-1.89149">
        <ele>2.949</ele>
        <time>2011-08-05T09:03:01Z</time>
      </trkpt>
      <trkpt lat="46.84283" lon="-1.89137">
        <ele>1.739</ele>
        <time>2011-08-05T09:03:08Z</time>
      </trkpt>
      <trkpt lat="46.84258" lon="-1.89174">
        <ele>1.544</ele>
        <time>2011-08-05T09:03:13Z</time>
      </trkpt>
      <trkpt lat="46.84194" lon="-1.89352">
        <ele>2.801</ele>
        <time>2011-08-05T09:03:33Z</time>
      </trkpt>
      <trkpt lat="46.84133" lon="-1.8951">
        <ele>2.583</ele>
        <time>2011-08-05T09:03:54Z</time>
      </trkpt>
      <trkpt lat="46.84111" lon="-1.89517">
        <ele>2.892</ele>
        <time>2011-08-05T09:03:59Z</time>
      </trkpt>
      <trkpt lat="46.84016" lon="-1.89428">
        <ele>0.226</ele>
        <time>2011-08-05T09:04:15Z</time>
      </trkpt>
      <trkpt lat="46.83968" lon="-1.89361">
        <ele>-0.813</ele>
        <time>2011-08-05T09:04:25Z</time>
      </trkpt>
      <trkpt lat="46.83965" lon="-1.89355">
        <ele>-0.134</ele>
        <time>2011-08-05T09:04:27Z</time>
      </trkpt>
      <trkpt lat="46.83945" lon="-1.89308">
        <ele>0.112</ele>
        <time>2011-08-05T09:04:32Z</time>
      </trkpt>
      <trkpt lat="46.83913" lon="-1.89098">
        <ele>0.837</ele>
        <time>2011-08-05T09:04:53Z</time>
      </trkpt>
      <trkpt lat="46.83889" lon="-1.88837">
        <ele>1.692</ele>
        <time>2011-08-05T09:05:18Z</time>
      </trkpt>
      <trkpt lat="46.83866" lon="-1.88669">
        <ele>1.656</ele>
        <time>2011-08-05T09:05:35Z</time>
      </trkpt>
      <trkpt lat="46.83849" lon="-1.88615">
        <ele>2.413</ele>
        <time>2011-08-05T09:05:41Z</time>
      </trkpt>
      <trkpt lat="46.83796" lon="-1.88604">
        <ele>1.458</ele>
        <time>2011-08-05T09:05:49Z</time>
      </trkpt>
      <trkpt lat="46.83672" lon="-1.88717">
        <ele>0.51</ele>
        <time>2011-08-05T09:06:09Z</time>
      </trkpt>
      <trkpt lat="46.83635" lon="-1.88751">
        <ele>0.929</ele>
        <time>2011-08-05T09:06:16Z</time>
      </trkpt>
      <trkpt lat="46.83631" lon="-1.88755">
        <ele>0.445</ele>
        <time>2011-08-05T09:06:18Z</time>
      </trkpt>
      <trkpt lat="46.83605" lon="-1.88776">
        <ele>0.423</ele>
        <time>2011-08-05T09:06:22Z</time>
      </trkpt>
      <trkpt lat="46.83485" lon="-1.88878">
        <ele>0.101</ele>
        <time>2011-08-05T09:06:41Z</time>
      </trkpt>
      <trkpt lat="46.8336" lon="-1.88986">
        <ele>2.595</ele>
        <time>2011-08-05T09:07:05Z</time>
      </trkpt>
      <trkpt lat="46.8323" lon="-1.891">
        <ele>3.163</ele>
        <time>2011-08-05T09:07:29Z</time>
      </trkpt>
      <trkpt lat="46.83092" lon="-1.89222">
        <ele>0.061</ele>
        <time>2011-08-05T09:07:52Z</time>
      </trkpt>
      <trkpt lat="46.83077" lon="-1.89235">
        <ele>0.782</ele>
        <time>2011-08-05T09:07:56Z</time>
      </trkpt>
      <trkpt lat="46.83006" lon="-1.89296">
        <ele>-0.525</ele>
        <time>2011-08-05T09:08:06Z</time>
      </trkpt>
      <trkpt lat="46.82939" lon="-1.89354">
        <ele>-1.54</ele>
        <time>2011-08-05T09:08:17Z</time>
      </trkpt>
      <trkpt lat="46.82786" lon="-1.89483">
        <ele>-0.546</ele>
        <time>2011-08-05T09:08:42Z</time>
      </trkpt>
      <trkpt lat="46.82689" lon="-1.89568">
        <ele>0.67</ele>
        <time>2011-08-05T09:08:58Z</time>
      </trkpt>
      <trkpt lat="46.82682" lon="-1.89573">
        <ele>0.908</ele>
        <time>2011-08-05T09:08:59Z</time>
      </trkpt>
      <trkpt lat="46.82558" lon="-1.89682">
        <ele>1.246</ele>
        <time>2011-08-05T09:09:20Z</time>
      </trkpt>
      <trkpt lat="46.82536" lon="-1.897">
        <ele>-0.024</ele>
        <time>2011-08-05T09:09:24Z</time>
      </trkpt>
      <trkpt lat="46.82402" lon="-1.89818">
        <ele>-0.522</ele>
        <time>2011-08-05T09:09:47Z</time>
      </trkpt>
      <trkpt lat="46.82309" lon="-1.89858">
        <ele>0.561</ele>
        <time>2011-08-05T09:10:02Z</time>
      </trkpt>
      <trkpt lat="46.82206" lon="-1.89875">
        <ele>0.416</ele>
        <time>2011-08-05T09:10:19Z</time>
      </trkpt>
      <trkpt lat="46.82138" lon="-1.89885">
        <ele>0.704</ele>
        <time>2011-08-05T09:10:27Z</time>
      </trkpt>
      <trkpt lat="46.82066" lon="-1.8989">
        <ele>1.316</ele>
        <time>2011-08-05T09:10:38Z</time>
      </trkpt>
      <trkpt lat="46.81977" lon="-1.89899">
        <ele>1.405</ele>
        <time>2011-08-05T09:10:51Z</time>
      </trkpt>
      <trkpt lat="46.81868" lon="-1.89884">
        <ele>3.46</ele>
        <time>2011-08-05T09:11:08Z</time>
      </trkpt>
      <trkpt lat="46.81768" lon="-1.8987">
        <ele>3.327</ele>
        <time>2011-08-05T09:11:27Z</time>
      </trkpt>
      <trkpt lat="46.81622" lon="-1.89854">
        <ele>3.269</ele>
        <time>2011-08-05T09:11:51Z</time>
      </trkpt>
      <trkpt lat="46.81449" lon="-1.89845">
        <ele>4.519</ele>
        <time>2011-08-05T09:12:19Z</time>
      </trkpt>
      <trkpt lat="46.81354" lon="-1.89848">
        <ele>6.18</ele>
        <time>2011-08-05T09:12:37Z</time>
      </trkpt>
      <trkpt lat="46.81322" lon="-1.89852">
        <ele>5.984</ele>
        <time>2011-08-05T09:12:43Z</time>
      </trkpt>
      <trkpt lat="46.81313" lon="-1.89853">
        <ele>6.496</ele>
        <time>2011-08-05T09:12:47Z</time>
      </trkpt>
      <trkpt lat="46.81268" lon="-1.89864">
        <ele>6.579</ele>
        <time>2011-08-05T09:12:53Z</time>
      </trkpt>
      <trkpt lat="46.81155" lon="-1.89892">
        <ele>9.654</ele>
        <time>2011-08-05T09:13:13Z</time>
      </trkpt>
      <trkpt lat="46.81121" lon="-1.89892">
        <ele>8.076</ele>
        <time>2011-08-05T09:13:19Z</time>
      </trkpt>
      <trkpt lat="46.81057" lon="-1.89876">
        <ele>7.257</ele>
        <time>2011-08-05T09:13:29Z</time>
      </trkpt>
      <trkpt lat="46.80939" lon="-1.898">
        <ele>8.423</ele>
        <time>2011-08-05T09:13:49Z</time>
      </trkpt>
      <trkpt lat="46.80838" lon="-1.89756">
        <ele>11.517</ele>
        <time>2011-08-05T09:14:06Z</time>
      </trkpt>
      <trkpt lat="46.808" lon="-1.89744">
        <ele>13.779</ele>
        <time>2011-08-05T09:14:13Z</time>
      </trkpt>
      <trkpt lat="46.80784" lon="-1.89738">
        <ele>14.615</ele>
        <time>2011-08-05T09:14:16Z</time>
      </trkpt>
      <trkpt lat="46.8074" lon="-1.8972">
        <ele>14.934</ele>
        <time>2011-08-05T09:14:24Z</time>
      </trkpt>
      <trkpt lat="46.80638" lon="-1.89678">
        <ele>15.138</ele>
        <time>2011-08-05T09:14:41Z</time>
      </trkpt>
      <trkpt lat="46.80479" lon="-1.89649">
        <ele>15.077</ele>
        <time>2011-08-05T09:15:07Z</time>
      </trkpt>
      <trkpt lat="46.80402" lon="-1.89645">
        <ele>15.012</ele>
        <time>2011-08-05T09:15:19Z</time>
      </trkpt>
      <trkpt lat="46.80377" lon="-1.89659">
        <ele>14.993</ele>
        <time>2011-08-05T09:15:23Z</time>
      </trkpt>
      <trkpt lat="46.80351" lon="-1.8965">
        <ele>14.768</ele>
        <time>2011-08-05T09:15:27Z</time>
      </trkpt>
      <trkpt lat="46.80202" lon="-1.89686">
        <ele>13.496</ele>
        <time>2011-08-05T09:15:49Z</time>
      </trkpt>
      <trkpt lat="46.80033" lon="-1.89726">
        <ele>12.25</ele>
        <time>2011-08-05T09:16:13Z</time>
      </trkpt>
      <trkpt lat="46.79894" lon="-1.89805">
        <ele>8.817</ele>
        <time>2011-08-05T09:16:33Z</time>
      </trkpt>
      <trkpt lat="46.79766" lon="-1.89904">
        <ele>6.821</ele>
        <time>2011-08-05T09:16:52Z</time>
      </trkpt>
      <trkpt lat="46.79691" lon="-1.89969">
        <ele>4.065</ele>
        <time>2011-08-05T09:17:03Z</time>
      </trkpt>
      <trkpt lat="46.79663" lon="-1.89993">
        <ele>4.056</ele>
        <time>2011-08-05T09:17:07Z</time>
      </trkpt>
      <trkpt lat="46.79661" lon="-1.89995">
        <ele>1.712</ele>
        <time>2011-08-05T09:17:09Z</time>
      </trkpt>
      <trkpt lat="46.79632" lon="-1.90024">
        <ele>2.956</ele>
        <time>2011-08-05T09:17:12Z</time>
      </trkpt>
      <trkpt lat="46.79625" lon="-1.90031">
        <ele>6.273</ele>
        <time>2011-08-05T09:17:16Z</time>
      </trkpt>
      <trkpt lat="46.7961" lon="-1.90046">
        <ele>4.774</ele>
        <time>2011-08-05T09:17:47Z</time>
      </trkpt>
      <trkpt lat="46.79592" lon="-1.90064">
        <ele>3.238</ele>
        <time>2011-08-05T09:17:51Z</time>
      </trkpt>
      <trkpt lat="46.79573" lon="-1.90089">
        <ele>3.433</ele>
        <time>2011-08-05T09:17:55Z</time>
      </trkpt>
      <trkpt lat="46.79536" lon="-1.90214">
        <ele>-0.299</ele>
        <time>2011-08-05T09:18:08Z</time>
      </trkpt>
      <trkpt lat="46.7953" lon="-1.90234">
        <ele>-0.428</ele>
        <time>2011-08-05T09:18:10Z</time>
      </trkpt>
      <trkpt lat="46.79451" lon="-1.90341">
        <ele>-2.376</ele>
        <time>2011-08-05T09:18:24Z</time>
      </trkpt>
      <trkpt lat="46.79339" lon="-1.90467">
        <ele>-3.433</ele>
        <time>2011-08-05T09:18:43Z</time>
      </trkpt>
      <trkpt lat="46.79197" lon="-1.90615">
        <ele>-2.724</ele>
        <time>2011-08-05T09:19:05Z</time>
      </trkpt>
      <trkpt lat="46.79067" lon="-1.90749">
        <ele>-3.42</ele>
        <time>2011-08-05T09:19:27Z</time>
      </trkpt>
      <trkpt lat="46.78906" lon="-1.90914">
        <ele>-3.146</ele>
        <time>2011-08-05T09:19:55Z</time>
      </trkpt>
      <trkpt lat="46.78743" lon="-1.91084">
        <ele>-2.959</ele>
        <time>2011-08-05T09:20:24Z</time>
      </trkpt>
      <trkpt lat="46.78698" lon="-1.91131">
        <ele>-2.314</ele>
        <time>2011-08-05T09:20:32Z</time>
      </trkpt>
      <trkpt lat="46.78538" lon="-1.91297">
        <ele>-4.2</ele>
        <time>2011-08-05T09:21:00Z</time>
      </trkpt>
      <trkpt lat="46.7838" lon="-1.9146">
        <ele>-2.421</ele>
        <time>2011-08-05T09:21:30Z</time>
      </trkpt>
      <trkpt lat="46.78224" lon="-1.91616">
        <ele>-3.117</ele>
        <time>2011-08-05T09:21:59Z</time>
      </trkpt>
      <trkpt lat="46.7819" lon="-1.9165">
        <ele>-4.134</ele>
        <time>2011-08-05T09:22:05Z</time>
      </trkpt>
      <trkpt lat="46.78176" lon="-1.91664">
        <ele>-3.359</ele>
        <time>2011-08-05T09:22:09Z</time>
      </trkpt>
      <trkpt lat="46.78157" lon="-1.91683">
        <ele>-4.45</ele>
        <time>2011-08-05T09:22:11Z</time>
      </trkpt>
      <trkpt lat="46.78093" lon="-1.91749">
        <ele>-2.591</ele>
        <time>2011-08-05T09:22:23Z</time>
      </trkpt>
      <trkpt lat="46.78082" lon="-1.9176">
        <ele>-4.163</ele>
        <time>2011-08-05T09:22:25Z</time>
      </trkpt>
      <trkpt lat="46.77999" lon="-1.91846">
        <ele>-2.046</ele>
        <time>2011-08-05T09:22:41Z</time>
      </trkpt>
      <trkpt lat="46.7789" lon="-1.9196">
        <ele>-5.295</ele>
        <time>2011-08-05T09:23:02Z</time>
      </trkpt>
      <trkpt lat="46.77809" lon="-1.92044">
        <ele>-1.957</ele>
        <time>2011-08-05T09:23:18Z</time>
      </trkpt>
      <trkpt lat="46.77771" lon="-1.92083">
        <ele>-1.892</ele>
        <time>2011-08-05T09:23:25Z</time>
      </trkpt>
      <trkpt lat="46.77578" lon="-1.92282">
        <ele>-3.428</ele>
        <time>2011-08-05T09:23:59Z</time>
      </trkpt>
      <trkpt lat="46.77395" lon="-1.92473">
        <ele>-3.608</ele>
        <time>2011-08-05T09:24:32Z</time>
      </trkpt>
      <trkpt lat="46.77271" lon="-1.92604">
        <ele>-2.333</ele>
        <time>2011-08-05T09:24:56Z</time>
      </trkpt>
      <trkpt lat="46.7709" lon="-1.9279">
        <ele>-2.812</ele>
        <time>2011-08-05T09:25:29Z</time>
      </trkpt>
      <trkpt lat="46.7694" lon="-1.92947">
        <ele>-1.884</ele>
        <time>2011-08-05T09:25:59Z</time>
      </trkpt>
      <trkpt lat="46.76746" lon="-1.9315">
        <ele>-3.618</ele>
        <time>2011-08-05T09:26:31Z</time>
      </trkpt>
      <trkpt lat="46.76583" lon="-1.93318">
        <ele>-3.719</ele>
        <time>2011-08-05T09:27:02Z</time>
      </trkpt>
      <trkpt lat="46.76548" lon="-1.93355">
        <ele>-1.97</ele>
        <time>2011-08-05T09:27:09Z</time>
      </trkpt>
      <trkpt lat="46.76393" lon="-1.93514">
        <ele>-2.667</ele>
        <time>2011-08-05T09:27:39Z</time>
      </trkpt>
      <trkpt lat="46.76278" lon="-1.93628">
        <ele>-3.173</ele>
        <time>2011-08-05T09:28:02Z</time>
      </trkpt>
      <trkpt lat="46.7622" lon="-1.93689">
        <ele>-2.689</ele>
        <time>2011-08-05T09:28:13Z</time>
      </trkpt>
      <trkpt lat="46.7605" lon="-1.93865">
        <ele>-4.033</ele>
        <time>2011-08-05T09:28:45Z</time>
      </trkpt>
      <trkpt lat="46.75906" lon="-1.94016">
        <ele>-2.987</ele>
        <time>2011-08-05T09:29:13Z</time>
      </trkpt>
      <trkpt lat="46.75767" lon="-1.94161">
        <ele>-3.13</ele>
        <time>2011-08-05T09:29:41Z</time>
      </trkpt>
      <trkpt lat="46.75627" lon="-1.94308">
        <ele>-3.209</ele>
        <time>2011-08-05T09:30:09Z</time>
      </trkpt>
      <trkpt lat="46.75465" lon="-1.94474">
        <ele>-3.716</ele>
        <time>2011-08-05T09:30:40Z</time>
      </trkpt>
      <trkpt lat="46.75313" lon="-1.94628">
        <ele>-3.582</ele>
        <time>2011-08-05T09:31:10Z</time>
      </trkpt>
      <trkpt lat="46.75138" lon="-1.9481">
        <ele>-3.188</ele>
        <time>2011-08-05T09:31:45Z</time>
      </trkpt>
      <trkpt lat="46.75021" lon="-1.94933">
        <ele>-1.212</ele>
        <time>2011-08-05T09:32:09Z</time>
      </trkpt>
      <trkpt lat="46.749" lon="-1.95057">
        <ele>-0.43</ele>
        <time>2011-08-05T09:32:33Z</time>
      </trkpt>
      <trkpt lat="46.74794" lon="-1.9517">
        <ele>-1.18</ele>
        <time>2011-08-05T09:32:53Z</time>
      </trkpt>
      <trkpt lat="46.74714" lon="-1.95254">
        <ele>-1.317</ele>
        <time>2011-08-05T09:33:09Z</time>
      </trkpt>
      <trkpt lat="46.7463" lon="-1.95341">
        <ele>-3.162</ele>
        <time>2011-08-05T09:33:27Z</time>
      </trkpt>
      <trkpt lat="46.74507" lon="-1.95469">
        <ele>-2.618</ele>
        <time>2011-08-05T09:33:53Z</time>
      </trkpt>
      <trkpt lat="46.74476" lon="-1.95502">
        <ele>-3.239</ele>
        <time>2011-08-05T09:34:00Z</time>
      </trkpt>
      <trkpt lat="46.74468" lon="-1.95535">
        <ele>-2.962</ele>
        <time>2011-08-05T09:34:06Z</time>
      </trkpt>
      <trkpt lat="46.74452" lon="-1.95569">
        <ele>-2.828</ele>
        <time>2011-08-05T09:34:09Z</time>
      </trkpt>
      <trkpt lat="46.7446" lon="-1.9568">
        <ele>-4.245</ele>
        <time>2011-08-05T09:34:21Z</time>
      </trkpt>
      <trkpt lat="46.74466" lon="-1.95766">
        <ele>-2.009</ele>
        <time>2011-08-05T09:34:30Z</time>
      </trkpt>
      <trkpt lat="46.74478" lon="-1.95923">
        <ele>-1.21</ele>
        <time>2011-08-05T09:34:47Z</time>
      </trkpt>
      <trkpt lat="46.7448" lon="-1.96051">
        <ele>-4.218</ele>
        <time>2011-08-05T09:35:02Z</time>
      </trkpt>
      <trkpt lat="46.74479" lon="-1.96069">
        <ele>-4.382</ele>
        <time>2011-08-05T09:35:04Z</time>
      </trkpt>
      <trkpt lat="46.7449" lon="-1.96104">
        <ele>-3.07</ele>
        <time>2011-08-05T09:35:08Z</time>
      </trkpt>
      <trkpt lat="46.74497" lon="-1.9612">
        <ele>-3.096</ele>
        <time>2011-08-05T09:35:10Z</time>
      </trkpt>
      <trkpt lat="46.74493" lon="-1.9616">
        <ele>-3.916</ele>
        <time>2011-08-05T09:35:14Z</time>
      </trkpt>
      <trkpt lat="46.7449" lon="-1.96166">
        <ele>-3.271</ele>
        <time>2011-08-05T09:35:16Z</time>
      </trkpt>
      <trkpt lat="46.74501" lon="-1.96239">
        <ele>-2.288</ele>
        <time>2011-08-05T09:35:23Z</time>
      </trkpt>
      <trkpt lat="46.74506" lon="-1.96266">
        <ele>-2.926</ele>
        <time>2011-08-05T09:35:26Z</time>
      </trkpt>
      <trkpt lat="46.74539" lon="-1.96524">
        <ele>-3.316</ele>
        <time>2011-08-05T09:35:53Z</time>
      </trkpt>
      <trkpt lat="46.7458" lon="-1.96728">
        <ele>-4.048</ele>
        <time>2011-08-05T09:36:15Z</time>
      </trkpt>
      <trkpt lat="46.74623" lon="-1.96921">
        <ele>-2.494</ele>
        <time>2011-08-05T09:36:37Z</time>
      </trkpt>
      <trkpt lat="46.7464" lon="-1.97223">
        <ele>-2.533</ele>
        <time>2011-08-05T09:37:08Z</time>
      </trkpt>
      <trkpt lat="46.74641" lon="-1.97253">
        <ele>-3.85</ele>
        <time>2011-08-05T09:37:11Z</time>
      </trkpt>
      <trkpt lat="46.74645" lon="-1.9731">
        <ele>-2.86</ele>
        <time>2011-08-05T09:37:17Z</time>
      </trkpt>
      <trkpt lat="46.74661" lon="-1.97558">
        <ele>-2.289</ele>
        <time>2011-08-05T09:37:42Z</time>
      </trkpt>
      <trkpt lat="46.74665" lon="-1.97587">
        <ele>-3.575</ele>
        <time>2011-08-05T09:37:45Z</time>
      </trkpt>
      <trkpt lat="46.74686" lon="-1.97663">
        <ele>-1.422</ele>
        <time>2011-08-05T09:37:53Z</time>
      </trkpt>
      <trkpt lat="46.74713" lon="-1.97774">
        <ele>-2.706</ele>
        <time>2011-08-05T09:38:05Z</time>
      </trkpt>
      <trkpt lat="46.74728" lon="-1.97876">
        <ele>-4.996</ele>
        <time>2011-08-05T09:38:15Z</time>
      </trkpt>
      <trkpt lat="46.74767" lon="-1.98125">
        <ele>-1.821</ele>
        <time>2011-08-05T09:38:41Z</time>
      </trkpt>
      <trkpt lat="46.74801" lon="-1.98221">
        <ele>-3.409</ele>
        <time>2011-08-05T09:38:52Z</time>
      </trkpt>
      <trkpt lat="46.74861" lon="-1.98347">
        <ele>-1.694</ele>
        <time>2011-08-05T09:39:07Z</time>
      </trkpt>
      <trkpt lat="46.74897" lon="-1.98376">
        <ele>-1.959</ele>
        <time>2011-08-05T09:39:13Z</time>
      </trkpt>
      <trkpt lat="46.75097" lon="-1.9838">
        <ele>-1.467</ele>
        <time>2011-08-05T09:39:39Z</time>
      </trkpt>
      <trkpt lat="46.75126" lon="-1.98383">
        <ele>-1.517</ele>
        <time>2011-08-05T09:39:43Z</time>
      </trkpt>
      <trkpt lat="46.7514" lon="-1.98384">
        <ele>-0.999</ele>
        <time>2011-08-05T09:39:45Z</time>
      </trkpt>
      <trkpt lat="46.75192" lon="-1.98437">
        <ele>-3.128</ele>
        <time>2011-08-05T09:39:54Z</time>
      </trkpt>
      <trkpt lat="46.75295" lon="-1.98593">
        <ele>-2.118</ele>
        <time>2011-08-05T09:40:14Z</time>
      </trkpt>
      <trkpt lat="46.75421" lon="-1.98694">
        <ele>-1.05</ele>
        <time>2011-08-05T09:40:33Z</time>
      </trkpt>
      <trkpt lat="46.75528" lon="-1.98767">
        <ele>-1.237</ele>
        <time>2011-08-05T09:40:52Z</time>
      </trkpt>
      <trkpt lat="46.75709" lon="-1.98892">
        <ele>-1.612</ele>
        <time>2011-08-05T09:41:17Z</time>
      </trkpt>
      <trkpt lat="46.75769" lon="-1.98938">
        <ele>-2.468</ele>
        <time>2011-08-05T09:41:26Z</time>
      </trkpt>
      <trkpt lat="46.75887" lon="-1.99056">
        <ele>-1.183</ele>
        <time>2011-08-05T09:41:46Z</time>
      </trkpt>
      <trkpt lat="46.75993" lon="-1.99184">
        <ele>-2.848</ele>
        <time>2011-08-05T09:42:05Z</time>
      </trkpt>
      <trkpt lat="46.76063" lon="-1.99269">
        <ele>-0.667</ele>
        <time>2011-08-05T09:42:17Z</time>
      </trkpt>
      <trkpt lat="46.76143" lon="-1.99391">
        <ele>-1.178</ele>
        <time>2011-08-05T09:42:35Z</time>
      </trkpt>
      <trkpt lat="46.76228" lon="-1.99518">
        <ele>-1.876</ele>
        <time>2011-08-05T09:42:56Z</time>
      </trkpt>
      <trkpt lat="46.76321" lon="-1.9966">
        <ele>-1.657</ele>
        <time>2011-08-05T09:43:13Z</time>
      </trkpt>
      <trkpt lat="46.76365" lon="-1.99728">
        <ele>-2.614</ele>
        <time>2011-08-05T09:43:24Z</time>
      </trkpt>
      <trkpt lat="46.76497" lon="-1.99934">
        <ele>-1.957</ele>
        <time>2011-08-05T09:43:51Z</time>
      </trkpt>
      <trkpt lat="46.76533" lon="-1.99991">
        <ele>-1.198</ele>
        <time>2011-08-05T09:43:59Z</time>
      </trkpt>
      <trkpt lat="46.76601" lon="-2.00067">
        <ele>-1.681</ele>
        <time>2011-08-05T09:44:14Z</time>
      </trkpt>
      <trkpt lat="46.76744" lon="-2.00227">
        <ele>-2.175</ele>
        <time>2011-08-05T09:44:35Z</time>
      </trkpt>
      <trkpt lat="46.76917" lon="-2.00414">
        <ele>-1.871</ele>
        <time>2011-08-05T09:45:03Z</time>
      </trkpt>
      <trkpt lat="46.76958" lon="-2.0046">
        <ele>-2.181</ele>
        <time>2011-08-05T09:45:10Z</time>
      </trkpt>
      <trkpt lat="46.7711" lon="-2.00627">
        <ele>-3.557</ele>
        <time>2011-08-05T09:45:36Z</time>
      </trkpt>
      <trkpt lat="46.77296" lon="-2.00825">
        <ele>-2.438</ele>
        <time>2011-08-05T09:46:05Z</time>
      </trkpt>
      <trkpt lat="46.77412" lon="-2.00898">
        <ele>-2.232</ele>
        <time>2011-08-05T09:46:21Z</time>
      </trkpt>
      <trkpt lat="46.77598" lon="-2.00993">
        <ele>-0.751</ele>
        <time>2011-08-05T09:46:46Z</time>
      </trkpt>
      <trkpt lat="46.77837" lon="-2.01117">
        <ele>-1.27</ele>
        <time>2011-08-05T09:47:17Z</time>
      </trkpt>
      <trkpt lat="46.77948" lon="-2.01208">
        <ele>-2.236</ele>
        <time>2011-08-05T09:47:33Z</time>
      </trkpt>
      <trkpt lat="46.77966" lon="-2.0123">
        <ele>-0.89</ele>
        <time>2011-08-05T09:47:36Z</time>
      </trkpt>
      <trkpt lat="46.78011" lon="-2.0132">
        <ele>-4.35</ele>
        <time>2011-08-05T09:47:46Z</time>
      </trkpt>
      <trkpt lat="46.78021" lon="-2.01348">
        <ele>-1.989</ele>
        <time>2011-08-05T09:47:49Z</time>
      </trkpt>
      <trkpt lat="46.7814" lon="-2.01667">
        <ele>-1.588</ele>
        <time>2011-08-05T09:48:23Z</time>
      </trkpt>
      <trkpt lat="46.7815" lon="-2.01693">
        <ele>-0.354</ele>
        <time>2011-08-05T09:48:26Z</time>
      </trkpt>
      <trkpt lat="46.78241" lon="-2.01927">
        <ele>-0.504</ele>
        <time>2011-08-05T09:48:52Z</time>
      </trkpt>
      <trkpt lat="46.78348" lon="-2.02143">
        <ele>0.515</ele>
        <time>2011-08-05T09:49:18Z</time>
      </trkpt>
      <trkpt lat="46.78434" lon="-2.02324">
        <ele>-0.495</ele>
        <time>2011-08-05T09:49:39Z</time>
      </trkpt>
      <trkpt lat="46.78543" lon="-2.02561">
        <ele>-1.764</ele>
        <time>2011-08-05T09:50:05Z</time>
      </trkpt>
      <trkpt lat="46.78567" lon="-2.02595">
        <ele>0.097</ele>
        <time>2011-08-05T09:50:10Z</time>
      </trkpt>
      <trkpt lat="46.78597" lon="-2.02597">
        <ele>-0.328</ele>
        <time>2011-08-05T09:50:15Z</time>
      </trkpt>
      <trkpt lat="46.78645" lon="-2.02623">
        <ele>-1.169</ele>
        <time>2011-08-05T09:50:22Z</time>
      </trkpt>
      <trkpt lat="46.78639" lon="-2.02677">
        <ele>-0.327</ele>
        <time>2011-08-05T09:50:27Z</time>
      </trkpt>
      <trkpt lat="46.78633" lon="-2.02682">
        <ele>-0.614</ele>
        <time>2011-08-05T09:50:28Z</time>
      </trkpt>
      <trkpt lat="46.78622" lon="-2.02694">
        <ele>-0.836</ele>
        <time>2011-08-05T09:50:30Z</time>
      </trkpt>
      <trkpt lat="46.78625" lon="-2.02772">
        <ele>-0.729</ele>
        <time>2011-08-05T09:50:37Z</time>
      </trkpt>
      <trkpt lat="46.78687" lon="-2.02925">
        <ele>-0.061</ele>
        <time>2011-08-05T09:50:57Z</time>
      </trkpt>
      <trkpt lat="46.78769" lon="-2.03119">
        <ele>-0.192</ele>
        <time>2011-08-05T09:51:21Z</time>
      </trkpt>
      <trkpt lat="46.78843" lon="-2.03305">
        <ele>-0.584</ele>
        <time>2011-08-05T09:51:43Z</time>
      </trkpt>
      <trkpt lat="46.78891" lon="-2.03392">
        <ele>-1.136</ele>
        <time>2011-08-05T09:51:55Z</time>
      </trkpt>
      <trkpt lat="46.78952" lon="-2.03501">
        <ele>-2.83</ele>
        <time>2011-08-05T09:52:08Z</time>
      </trkpt>
      <trkpt lat="46.78998" lon="-2.03651">
        <ele>-1.736</ele>
        <time>2011-08-05T09:52:24Z</time>
      </trkpt>
      <trkpt lat="46.78995" lon="-2.0378">
        <ele>-2.468</ele>
        <time>2011-08-05T09:52:37Z</time>
      </trkpt>
      <trkpt lat="46.78986" lon="-2.03928">
        <ele>-1.801</ele>
        <time>2011-08-05T09:52:54Z</time>
      </trkpt>
      <trkpt lat="46.78993" lon="-2.04">
        <ele>-1.111</ele>
        <time>2011-08-05T09:53:02Z</time>
      </trkpt>
      <trkpt lat="46.79015" lon="-2.04263">
        <ele>-2.945</ele>
        <time>2011-08-05T09:53:29Z</time>
      </trkpt>
      <trkpt lat="46.79043" lon="-2.04477">
        <ele>-1.961</ele>
        <time>2011-08-05T09:53:52Z</time>
      </trkpt>
      <trkpt lat="46.79077" lon="-2.04668">
        <ele>-4.138</ele>
        <time>2011-08-05T09:54:12Z</time>
      </trkpt>
      <trkpt lat="46.79138" lon="-2.04915">
        <ele>-4.339</ele>
        <time>2011-08-05T09:54:38Z</time>
      </trkpt>
      <trkpt lat="46.79145" lon="-2.04945">
        <ele>-3.094</ele>
        <time>2011-08-05T09:54:41Z</time>
      </trkpt>
      <trkpt lat="46.7917" lon="-2.05078">
        <ele>-1.263</ele>
        <time>2011-08-05T09:54:55Z</time>
      </trkpt>
      <trkpt lat="46.79193" lon="-2.05254">
        <ele>-0.671</ele>
        <time>2011-08-05T09:55:17Z</time>
      </trkpt>
      <trkpt lat="46.79199" lon="-2.053">
        <ele>-1.534</ele>
        <time>2011-08-05T09:55:23Z</time>
      </trkpt>
      <trkpt lat="46.79202" lon="-2.05324">
        <ele>-1.495</ele>
        <time>2011-08-05T09:55:28Z</time>
      </trkpt>
      <trkpt lat="46.79194" lon="-2.05369">
        <ele>-2.219</ele>
        <time>2011-08-05T09:55:32Z</time>
      </trkpt>
      <trkpt lat="46.79199" lon="-2.05432">
        <ele>-3.113</ele>
        <time>2011-08-05T09:55:39Z</time>
      </trkpt>
      <trkpt lat="46.79224" lon="-2.05557">
        <ele>-0.448</ele>
        <time>2011-08-05T09:55:56Z</time>
      </trkpt>
      <trkpt lat="46.79238" lon="-2.05599">
        <ele>-0.601</ele>
        <time>2011-08-05T09:56:02Z</time>
      </trkpt>
      <trkpt lat="46.79245" lon="-2.05616">
        <ele>-0.704</ele>
        <time>2011-08-05T09:56:06Z</time>
      </trkpt>
      <trkpt lat="46.79259" lon="-2.05685">
        <ele>-0.186</ele>
        <time>2011-08-05T09:56:17Z</time>
      </trkpt>
      <trkpt lat="46.79264" lon="-2.05726">
        <ele>-0.357</ele>
        <time>2011-08-05T09:56:29Z</time>
      </trkpt>
      <trkpt lat="46.79273" lon="-2.05789">
        <ele>-1.483</ele>
        <time>2011-08-05T09:56:40Z</time>
      </trkpt>
      <trkpt lat="46.79288" lon="-2.05902">
        <ele>-0.434</ele>
        <time>2011-08-05T09:56:54Z</time>
      </trkpt>
      <trkpt lat="46.79293" lon="-2.05949">
        <ele>0.19</ele>
        <time>2011-08-05T09:57:02Z</time>
      </trkpt>
      <trkpt lat="46.79294" lon="-2.05958">
        <ele>1.064</ele>
        <time>2011-08-05T09:57:07Z</time>
      </trkpt>
      <trkpt lat="46.79301" lon="-2.05993">
        <ele>0.737</ele>
        <time>2011-08-05T09:57:18Z</time>
      </trkpt>
      <trkpt lat="46.79303" lon="-2.06">
        <ele>0.635</ele>
        <time>2011-08-05T09:57:20Z</time>
      </trkpt>
      <trkpt lat="46.79305" lon="-2.06007">
        <ele>1.028</ele>
        <time>2011-08-05T09:57:23Z</time>
      </trkpt>
      <trkpt lat="46.79321" lon="-2.06068">
        <ele>0.969</ele>
        <time>2011-08-05T09:57:35Z</time>
      </trkpt>
      <trkpt lat="46.79338" lon="-2.06144">
        <ele>0.659</ele>
        <time>2011-08-05T09:57:47Z</time>
      </trkpt>
      <trkpt lat="46.79346" lon="-2.06171">
        <ele>0.18</ele>
        <time>2011-08-05T09:57:51Z</time>
      </trkpt>
      <trkpt lat="46.79363" lon="-2.06195">
        <ele>0.371</ele>
        <time>2011-08-05T09:57:56Z</time>
      </trkpt>
      <trkpt lat="46.79375" lon="-2.06294">
        <ele>-2.129</ele>
        <time>2011-08-05T09:58:08Z</time>
      </trkpt>
      <trkpt lat="46.79379" lon="-2.06329">
        <ele>-0.407</ele>
        <time>2011-08-05T09:58:12Z</time>
      </trkpt>
      <trkpt lat="46.79415" lon="-2.06464">
        <ele>-1.481</ele>
        <time>2011-08-05T09:58:27Z</time>
      </trkpt>
      <trkpt lat="46.79459" lon="-2.06631">
        <ele>-0.057</ele>
        <time>2011-08-05T09:58:46Z</time>
      </trkpt>
      <trkpt lat="46.79477" lon="-2.06702">
        <ele>-0.847</ele>
        <time>2011-08-05T09:58:56Z</time>
      </trkpt>
      <trkpt lat="46.79489" lon="-2.06745">
        <ele>-2.368</ele>
        <time>2011-08-05T09:59:05Z</time>
      </trkpt>
      <trkpt lat="46.79551" lon="-2.06838">
        <ele>0.199</ele>
        <time>2011-08-05T09:59:14Z</time>
      </trkpt>
      <trkpt lat="46.79622" lon="-2.06934">
        <ele>0.302</ele>
        <time>2011-08-05T09:59:29Z</time>
      </trkpt>
      <trkpt lat="46.79648" lon="-2.06955">
        <ele>0.418</ele>
        <time>2011-08-05T09:59:34Z</time>
      </trkpt>
      <trkpt lat="46.79648" lon="-2.06955">
        <ele>0.326</ele>
        <time>2011-08-05T09:59:37Z</time>
      </trkpt>
      <trkpt lat="46.79674" lon="-2.06978">
        <ele>-0.642</ele>
        <time>2011-08-05T09:59:42Z</time>
      </trkpt>
      <trkpt lat="46.79679" lon="-2.07022">
        <ele>-0.814</ele>
        <time>2011-08-05T09:59:47Z</time>
      </trkpt>
      <trkpt lat="46.79791" lon="-2.07187">
        <ele>-2.408</ele>
        <time>2011-08-05T10:00:08Z</time>
      </trkpt>
      <trkpt lat="46.79881" lon="-2.07362">
        <ele>-1.866</ele>
        <time>2011-08-05T10:00:29Z</time>
      </trkpt>
      <trkpt lat="46.79914" lon="-2.0746">
        <ele>-2.076</ele>
        <time>2011-08-05T10:00:44Z</time>
      </trkpt>
      <trkpt lat="46.79939" lon="-2.07539">
        <ele>-3.824</ele>
        <time>2011-08-05T10:00:52Z</time>
      </trkpt>
      <trkpt lat="46.79999" lon="-2.0774">
        <ele>-3.02</ele>
        <time>2011-08-05T10:01:10Z</time>
      </trkpt>
      <trkpt lat="46.80079" lon="-2.08006">
        <ele>-2.847</ele>
        <time>2011-08-05T10:01:37Z</time>
      </trkpt>
      <trkpt lat="46.80178" lon="-2.08342">
        <ele>-3.004</ele>
        <time>2011-08-05T10:02:12Z</time>
      </trkpt>
      <trkpt lat="46.80253" lon="-2.08601">
        <ele>-2.094</ele>
        <time>2011-08-05T10:02:38Z</time>
      </trkpt>
      <trkpt lat="46.80261" lon="-2.08632">
        <ele>-3.324</ele>
        <time>2011-08-05T10:02:41Z</time>
      </trkpt>
      <trkpt lat="46.80333" lon="-2.0887">
        <ele>-4.448</ele>
        <time>2011-08-05T10:03:04Z</time>
      </trkpt>
      <trkpt lat="46.80368" lon="-2.08986">
        <ele>-1.803</ele>
        <time>2011-08-05T10:03:15Z</time>
      </trkpt>
      <trkpt lat="46.80386" lon="-2.09045">
        <ele>-4.23</ele>
        <time>2011-08-05T10:03:23Z</time>
      </trkpt>
      <trkpt lat="46.80451" lon="-2.09267">
        <ele>-3.654</ele>
        <time>2011-08-05T10:03:42Z</time>
      </trkpt>
      <trkpt lat="46.80492" lon="-2.09407">
        <ele>-2.39</ele>
        <time>2011-08-05T10:03:56Z</time>
      </trkpt>
      <trkpt lat="46.80572" lon="-2.09673">
        <ele>-1.806</ele>
        <time>2011-08-05T10:04:23Z</time>
      </trkpt>
      <trkpt lat="46.80606" lon="-2.09783">
        <ele>-1.928</ele>
        <time>2011-08-05T10:04:34Z</time>
      </trkpt>
      <trkpt lat="46.80685" lon="-2.1004">
        <ele>-1.841</ele>
        <time>2011-08-05T10:05:00Z</time>
      </trkpt>
      <trkpt lat="46.80749" lon="-2.10254">
        <ele>-2.71</ele>
        <time>2011-08-05T10:05:21Z</time>
      </trkpt>
      <trkpt lat="46.80858" lon="-2.1061">
        <ele>-2.125</ele>
        <time>2011-08-05T10:05:55Z</time>
      </trkpt>
      <trkpt lat="46.8093" lon="-2.10857">
        <ele>-3.718</ele>
        <time>2011-08-05T10:06:19Z</time>
      </trkpt>
      <trkpt lat="46.80981" lon="-2.11027">
        <ele>-2.761</ele>
        <time>2011-08-05T10:06:38Z</time>
      </trkpt>
      <trkpt lat="46.81067" lon="-2.11307">
        <ele>-4.032</ele>
        <time>2011-08-05T10:07:08Z</time>
      </trkpt>
      <trkpt lat="46.8111" lon="-2.11445">
        <ele>-1.012</ele>
        <time>2011-08-05T10:07:23Z</time>
      </trkpt>
      <trkpt lat="46.8116" lon="-2.11605">
        <ele>-0.907</ele>
        <time>2011-08-05T10:07:41Z</time>
      </trkpt>
      <trkpt lat="46.81164" lon="-2.1162">
        <ele>-1.163</ele>
        <time>2011-08-05T10:07:43Z</time>
      </trkpt>
      <trkpt lat="46.81167" lon="-2.11628">
        <ele>-0.624</ele>
        <time>2011-08-05T10:07:47Z</time>
      </trkpt>
      <trkpt lat="46.81187" lon="-2.11682">
        <ele>-1.345</ele>
        <time>2011-08-05T10:07:52Z</time>
      </trkpt>
      <trkpt lat="46.81265" lon="-2.11841">
        <ele>-1.078</ele>
        <time>2011-08-05T10:08:13Z</time>
      </trkpt>
      <trkpt lat="46.81388" lon="-2.12074">
        <ele>-1.3</ele>
        <time>2011-08-05T10:08:42Z</time>
      </trkpt>
      <trkpt lat="46.81502" lon="-2.12284">
        <ele>-1.086</ele>
        <time>2011-08-05T10:09:07Z</time>
      </trkpt>
      <trkpt lat="46.81617" lon="-2.12456">
        <ele>-1.26</ele>
        <time>2011-08-05T10:09:29Z</time>
      </trkpt>
      <trkpt lat="46.81744" lon="-2.12619">
        <ele>-2.547</ele>
        <time>2011-08-05T10:09:52Z</time>
      </trkpt>
      <trkpt lat="46.81851" lon="-2.12756">
        <ele>0.681</ele>
        <time>2011-08-05T10:10:12Z</time>
      </trkpt>
      <trkpt lat="46.8201" lon="-2.12963">
        <ele>-0.665</ele>
        <time>2011-08-05T10:10:42Z</time>
      </trkpt>
      <trkpt lat="46.82068" lon="-2.1304">
        <ele>1.126</ele>
        <time>2011-08-05T10:10:57Z</time>
      </trkpt>
      <trkpt lat="46.82128" lon="-2.13086">
        <ele>2.874</ele>
        <time>2011-08-05T10:11:13Z</time>
      </trkpt>
      <trkpt lat="46.82176" lon="-2.13105">
        <ele>3.058</ele>
        <time>2011-08-05T10:11:28Z</time>
      </trkpt>
      <trkpt lat="46.82176" lon="-2.13105">
        <ele>2.883</ele>
        <time>2011-08-05T10:11:36Z</time>
      </trkpt>
      <trkpt lat="46.82176" lon="-2.13105">
        <ele>2.037</ele>
        <time>2011-08-05T10:11:49Z</time>
      </trkpt>
      <trkpt lat="46.82176" lon="-2.13105">
        <ele>2.358</ele>
        <time>2011-08-05T10:12:05Z</time>
      </trkpt>
      <trkpt lat="46.82196" lon="-2.13111">
        <ele>1.937</ele>
        <time>2011-08-05T10:12:15Z</time>
      </trkpt>
      <trkpt lat="46.82189" lon="-2.13109">
        <ele>1.492</ele>
        <time>2011-08-05T10:12:23Z</time>
      </trkpt>
      <trkpt lat="46.82203" lon="-2.13113">
        <ele>1.233</ele>
        <time>2011-08-05T10:12:33Z</time>
      </trkpt>
    </trkseg>
  </trk>
</gpx>